Tuesday, October 16, 2018, 7:01 PM EDT
Back to Local

KITH, Ithaca, Ithaca Tompkins Regional Airport

Location: Ithaca, NY, United States Lat: 42.491
Local Time: 7:01 PM EDT (23:01 GMT) Lon: -76.458
Time Zone: US/Eastern Elev: 1099 ft

Show me the last for .
Show Decoded

2018-10-16 17:56 METAR KITH 162156Z 18004KT 10SM CLR 08/01 A3001 RMK AO2 SLP168 T00830006 =
2018-10-16 16:56 METAR KITH 162056Z 26008KT 10SM SCT049 10/01 A3002 RMK AO2 SLP173 T01000006
                 58021 =
2018-10-16 15:56 METAR KITH 161956Z 27010KT 10SM SCT045 10/01 A3005 RMK AO2 SLP182 T01000006 =
2018-10-16 14:56 METAR KITH 161856Z 25010KT 10SM SCT045 10/00 A3007 RMK AO2 SLP187 T01000000 =
2018-10-16 13:56 METAR KITH 161756Z 27007KT 10SM BKN045 08/00 A3009 RMK AO2 SLP195 T00780000
                 10094 20022 58021 =
2018-10-16 12:56 METAR KITH 161656Z 29012KT 10SM BKN040 09/01 A3012 RMK AO2 SLP204 T00890006 =
2018-10-16 11:56 METAR KITH 161556Z 26009KT 10SM BKN040 08/M01 A3014 RMK AO2 SLP212 T00781006 =
2018-10-16 10:56 METAR KITH 161456Z 26010KT 10SM SCT040 07/M01 A3015 RMK AO2 SLP216 T00671006
                 58002 =
2018-10-16 09:56 METAR KITH 161356Z 28010KT 10SM FEW035 06/M01 A3018 RMK AO2 SLP223 T00611011 =
2018-10-16 08:56 METAR KITH 161256Z 28007KT 10SM CLR 04/M02 A3017 RMK AO2 SLP221 T00441017 =
2018-10-16 07:56 METAR KITH 161156Z 28008KT 10SM SCT041 02/M02 A3016 RMK AO2 SLP219 70007
                 T00221022 10044 20017 53010 =
2018-10-16 06:56 METAR KITH 161056Z 19003KT 10SM BKN041 02/M02 A3015 RMK AO2 SLP214 T00221017 =
2018-10-16 06:30 METAR KITH 161030Z 25005KT 10SM BKN041 03/M02 A3015 RMK AO2 =
2018-10-16 05:56 METAR KITH 160956Z AUTO 27011KT 10SM BKN041 03/M03 A3014 RMK AO2 SLP210
                 T00281033 =
2018-10-16 04:56 METAR KITH 160856Z AUTO 27008KT 10SM CLR 02/M03 A3013 RMK AO2 SLP207 T00171028
                 53004 =
2018-10-16 03:56 METAR KITH 160756Z AUTO 27009KT 10SM CLR 03/M03 A3011 RMK AO2 SLP199 T00281028 =
2018-10-16 02:56 METAR KITH 160656Z AUTO 27010KT 10SM CLR 04/M03 A3011 RMK AO2 SLP200 T00391028 =
2018-10-16 01:56 METAR KITH 160556Z AUTO 30009KT 10SM BKN050 04/M03 A3011 RMK AO2 PK WND
                 27026/0517 SLP201 60000 T00391028 10122 20039 51027 =
2018-10-16 00:56 METAR KITH 160456Z AUTO 29022G29KT 10SM SCT044 05/M03 A3009 RMK AO2 PK WND
                 29029/0454 SLP194 T00501028 401560050 =
2018-10-15 23:56 METAR KITH 160356Z AUTO 31014G25KT 10SM BKN043 OVC050 07/01 A3007 RMK AO2 PK WND
                 29028/0329 SLP185 T00720006 =
2018-10-15 22:56 METAR KITH 160256Z AUTO 30020G25KT 10SM OVC040 08/02 A3003 RMK AO2 PK WND
                 29029/0228 RAE10 SLP172 P0000 60000 T00780017 53044 =
2018-10-15 22:35 METAR KITH 160235Z AUTO 31015G29KT 10SM FEW029 OVC036 08/03 A3002 RMK AO2 PK WND
                 29029/0228 RAE10 P0000 =
2018-10-15 21:56 METAR KITH 160156Z 30016G21KT 10SM -RA FEW019 OVC025 09/06 A2998 RMK AO2 RAB39
                 SLP154 P0000 T00890061 =
2018-10-15 20:56 METAR KITH 160056Z 28017G22KT 10SM BKN028 OVC041 11/08 A2993 RMK AO2 SLP136
                 T01110078 =
2018-10-15 19:56 METAR KITH 152356Z 28014G20KT 10SM BKN025 OVC040 12/09 A2990 RMK AO2 RAE05
                 SLP126 P0000 60007 T01220094 10156 20122 53027 =

Support USWX by starting your Amazon purchase here.